sensor_id;sensor_type;location;lat;lon;timestamp;pressure;altitude;pressure_sealevel;temperature;humidity
64628;BME280;59036;50.960;0.314;2023-02-28T00:00:37;101364.65;;;3.31;100.00
64628;BME280;59036;50.960;0.314;2023-02-28T00:03:05;101367.08;;;2.18;100.00
64628;BME280;59036;50.960;0.314;2023-02-28T00:05:33;101366.40;;;3.03;100.00
64628;BME280;59036;50.960;0.314;2023-02-28T00:08:01;101368.65;;;2.18;100.00
64628;BME280;59036;50.960;0.314;2023-02-28T00:10:29;101369.80;;;1.86;100.00
64628;BME280;59036;50.960;0.314;2023-02-28T00:13:00;101364.70;;;2.58;100.00
64628;BME280;59036;50.960;0.314;2023-02-28T00:15:28;101370.74;;;2.44;100.00
64628;BME280;59036;50.960;0.314;2023-02-28T00:17:55;101368.12;;;2.87;100.00
64628;BME280;59036;50.960;0.314;2023-02-28T00:20:23;101367.94;;;2.67;100.00
64628;BME280;59036;50.960;0.314;2023-02-28T00:22:52;101368.31;;;2.77;100.00
64628;BME280;59036;50.960;0.314;2023-02-28T00:25:23;101367.79;;;2.49;100.00
64628;BME280;59036;50.960;0.314;2023-02-28T00:27:51;101374.13;;;2.44;100.00
64628;BME280;59036;50.960;0.314;2023-02-28T00:30:20;101373.91;;;2.23;100.00
64628;BME280;59036;50.960;0.314;2023-02-28T00:32:47;101376.13;;;3.11;100.00
64628;BME280;59036;50.960;0.314;2023-02-28T00:35:14;101378.92;;;3.19;100.00
64628;BME280;59036;50.960;0.314;2023-02-28T00:37:42;101377.64;;;3.51;100.00
64628;BME280;59036;50.960;0.314;2023-02-28T00:40:11;101381.02;;;3.01;100.00
64628;BME280;59036;50.960;0.314;2023-02-28T00:42:38;101382.64;;;2.58;100.00
64628;BME280;59036;50.960;0.314;2023-02-28T00:45:07;101382.49;;;2.73;100.00
64628;BME280;59036;50.960;0.314;2023-02-28T00:47:34;101380.89;;;3.33;100.00
64628;BME280;59036;50.960;0.314;2023-02-28T00:50:02;101381.22;;;2.14;100.00
64628;BME280;59036;50.960;0.314;2023-02-28T00:52:29;101374.15;;;3.03;100.00
64628;BME280;59036;50.960;0.314;2023-02-28T00:54:57;101373.30;;;2.98;100.00
64628;BME280;59036;50.960;0.314;2023-02-28T00:57:23;101379.15;;;1.89;100.00
64628;BME280;59036;50.960;0.314;2023-02-28T00:59:51;101381.23;;;1.96;100.00
64628;BME280;59036;50.960;0.314;2023-02-28T01:02:18;101378.16;;;2.09;100.00
64628;BME280;59036;50.960;0.314;2023-02-28T01:04:46;101376.62;;;1.73;100.00
64628;BME280;59036;50.960;0.314;2023-02-28T01:07:13;101381.91;;;1.83;100.00
64628;BME280;59036;50.960;0.314;2023-02-28T01:09:41;101380.80;;;1.70;100.00
64628;BME280;59036;50.960;0.314;2023-02-28T01:12:08;101384.98;;;1.57;100.00
64628;BME280;59036;50.960;0.314;2023-02-28T01:14:36;101385.66;;;1.69;100.00
64628;BME280;59036;50.960;0.314;2023-02-28T01:17:04;101383.38;;;2.09;100.00
64628;BME280;59036;50.960;0.314;2023-02-28T01:19:31;101383.88;;;2.23;100.00
64628;BME280;59036;50.960;0.314;2023-02-28T01:22:01;101382.93;;;2.00;100.00
64628;BME280;59036;50.960;0.314;2023-02-28T01:24:28;101381.45;;;1.92;100.00
64628;BME280;59036;50.960;0.314;2023-02-28T01:26:56;101377.79;;;2.16;100.00
64628;BME280;59036;50.960;0.314;2023-02-28T01:29:23;101375.02;;;2.35;100.00
64628;BME280;59036;50.960;0.314;2023-02-28T01:31:50;101375.89;;;1.72;100.00
64628;BME280;59036;50.960;0.314;2023-02-28T01:34:17;101373.38;;;2.05;100.00
64628;BME280;59036;50.960;0.314;2023-02-28T01:36:45;101368.16;;;1.75;100.00
64628;BME280;59036;50.960;0.314;2023-02-28T01:39:12;101365.28;;;2.15;100.00
64628;BME280;59036;50.960;0.314;2023-02-28T01:41:39;101369.20;;;2.17;100.00
64628;BME280;59036;50.960;0.314;2023-02-28T01:44:57;101366.77;;;2.69;100.00
64628;BME280;59036;50.960;0.314;2023-02-28T01:47:28;101367.93;;;2.37;100.00
64628;BME280;59036;50.960;0.314;2023-02-28T01:49:59;101362.52;;;2.92;100.00
64628;BME280;59036;50.960;0.314;2023-02-28T01:52:28;101360.99;;;2.98;100.00
64628;BME280;59036;50.960;0.314;2023-02-28T01:54:57;101362.78;;;2.55;100.00
64628;BME280;59036;50.960;0.314;2023-02-28T01:57:30;101360.27;;;2.63;100.00
64628;BME280;59036;50.960;0.314;2023-02-28T02:00:03;101364.29;;;1.43;100.00
64628;BME280;59036;50.960;0.314;2023-02-28T02:02:32;101361.95;;;2.51;100.00
64628;BME280;59036;50.960;0.314;2023-02-28T02:05:03;101365.97;;;1.81;100.00
64628;BME280;59036;50.960;0.314;2023-02-28T02:07:33;101361.23;;;2.83;100.00
64628;BME280;59036;50.960;0.314;2023-02-28T02:10:04;101365.45;;;2.47;100.00
64628;BME280;59036;50.960;0.314;2023-02-28T02:12:47;101370.83;;;1.81;100.00
64628;BME280;59036;50.960;0.314;2023-02-28T02:15:18;101371.81;;;2.45;100.00
64628;BME280;59036;50.960;0.314;2023-02-28T02:17:50;101369.41;;;2.33;100.00
64628;BME280;59036;50.960;0.314;2023-02-28T02:22:50;101375.36;;;2.65;100.00
64628;BME280;59036;50.960;0.314;2023-02-28T02:25:28;101378.97;;;2.40;100.00
64628;BME280;59036;50.960;0.314;2023-02-28T02:28:17;101374.77;;;2.58;100.00
64628;BME280;59036;50.960;0.314;2023-02-28T02:31:20;101372.22;;;2.72;100.00
64628;BME280;59036;50.960;0.314;2023-02-28T02:34:28;101374.85;;;2.06;100.00
64628;BME280;59036;50.960;0.314;2023-02-28T02:37:03;101374.55;;;2.18;100.00
64628;BME280;59036;50.960;0.314;2023-02-28T02:39:41;101371.27;;;2.07;100.00
64628;BME280;59036;50.960;0.314;2023-02-28T02:42:14;101375.59;;;1.17;100.00
64628;BME280;59036;50.960;0.314;2023-02-28T02:44:48;101375.35;;;1.67;100.00
64628;BME280;59036;50.960;0.314;2023-02-28T02:47:19;101375.77;;;1.71;100.00
64628;BME280;59036;50.960;0.314;2023-02-28T02:49:51;101376.87;;;1.95;100.00
64628;BME280;59036;50.960;0.314;2023-02-28T02:52:21;101373.25;;;1.89;100.00
64628;BME280;59036;50.960;0.314;2023-02-28T02:54:52;101376.01;;;1.69;100.00
64628;BME280;59036;50.960;0.314;2023-02-28T02:57:23;101376.75;;;1.36;100.00
64628;BME280;59036;50.960;0.314;2023-02-28T02:59:53;101375.82;;;2.54;100.00
64628;BME280;59036;50.960;0.314;2023-02-28T03:02:22;101371.54;;;2.29;100.00
64628;BME280;59036;50.960;0.314;2023-02-28T03:04:53;101375.23;;;2.09;100.00
64628;BME280;59036;50.960;0.314;2023-02-28T03:07:23;101374.60;;;1.94;100.00
64628;BME280;59036;50.960;0.314;2023-02-28T03:09:52;101371.08;;;2.31;100.00
64628;BME280;59036;50.960;0.314;2023-02-28T03:12:20;101370.83;;;1.28;100.00
64628;BME280;59036;50.960;0.314;2023-02-28T03:14:56;101369.97;;;1.65;100.00
64628;BME280;59036;50.960;0.314;2023-02-28T03:17:40;101363.62;;;2.03;100.00
64628;BME280;59036;50.960;0.314;2023-02-28T03:20:18;101359.91;;;1.98;100.00
64628;BME280;59036;50.960;0.314;2023-02-28T03:22:59;101363.74;;;1.17;100.00
64628;BME280;59036;50.960;0.314;2023-02-28T03:25:33;101364.68;;;1.39;100.00
64628;BME280;59036;50.960;0.314;2023-02-28T03:28:09;101367.91;;;0.96;100.00
64628;BME280;59036;50.960;0.314;2023-02-28T03:30:47;101369.85;;;0.97;100.00
64628;BME280;59036;50.960;0.314;2023-02-28T03:33:17;101370.58;;;1.19;100.00
64628;BME280;59036;50.960;0.314;2023-02-28T03:35:49;101378.98;;;0.24;100.00
64628;BME280;59036;50.960;0.314;2023-02-28T03:38:22;101377.37;;;1.28;100.00
64628;BME280;59036;50.960;0.314;2023-02-28T03:40:58;101377.07;;;0.97;100.00
64628;BME280;59036;50.960;0.314;2023-02-28T03:43:31;101375.74;;;1.07;100.00
64628;BME280;59036;50.960;0.314;2023-02-28T03:46:02;101378.19;;;1.30;100.00
64628;BME280;59036;50.960;0.314;2023-02-28T03:48:36;101380.55;;;0.66;100.00
64628;BME280;59036;50.960;0.314;2023-02-28T03:51:07;101382.69;;;1.41;100.00
64628;BME280;59036;50.960;0.314;2023-02-28T03:53:39;101390.45;;;0.77;100.00
64628;BME280;59036;50.960;0.314;2023-02-28T03:56:13;101393.09;;;1.08;100.00
64628;BME280;59036;50.960;0.314;2023-02-28T03:58:46;101396.19;;;1.07;100.00
64628;BME280;59036;50.960;0.314;2023-02-28T04:01:18;101395.10;;;1.11;100.00
64628;BME280;59036;50.960;0.314;2023-02-28T04:03:47;101393.11;;;0.92;100.00
64628;BME280;59036;50.960;0.314;2023-02-28T04:06:16;101385.87;;;1.98;100.00
64628;BME280;59036;50.960;0.314;2023-02-28T04:08:45;101377.68;;;2.14;100.00
64628;BME280;59036;50.960;0.314;2023-02-28T04:11:19;101379.06;;;1.80;100.00
64628;BME280;59036;50.960;0.314;2023-02-28T04:13:47;101379.45;;;1.79;100.00
64628;BME280;59036;50.960;0.314;2023-02-28T04:16:15;101378.47;;;1.22;100.00
64628;BME280;59036;50.960;0.314;2023-02-28T04:18:42;101375.97;;;1.38;100.00
64628;BME280;59036;50.960;0.314;2023-02-28T04:21:10;101377.25;;;0.79;100.00
64628;BME280;59036;50.960;0.314;2023-02-28T04:23:38;101380.15;;;1.46;100.00
64628;BME280;59036;50.960;0.314;2023-02-28T04:26:05;101377.43;;;1.03;100.00
64628;BME280;59036;50.960;0.314;2023-02-28T04:28:32;101375.72;;;1.36;100.00
64628;BME280;59036;50.960;0.314;2023-02-28T04:31:02;101378.55;;;0.47;100.00
64628;BME280;59036;50.960;0.314;2023-02-28T04:33:31;101379.90;;;1.80;100.00
64628;BME280;59036;50.960;0.314;2023-02-28T04:35:59;101379.05;;;1.53;100.00
64628;BME280;59036;50.960;0.314;2023-02-28T04:38:26;101380.20;;;2.47;100.00
64628;BME280;59036;50.960;0.314;2023-02-28T04:40:53;101377.90;;;2.32;100.00
64628;BME280;59036;50.960;0.314;2023-02-28T04:43:20;101382.58;;;1.21;100.00
64628;BME280;59036;50.960;0.314;2023-02-28T04:45:47;101383.17;;;1.54;100.00
64628;BME280;59036;50.960;0.314;2023-02-28T04:48:15;101380.25;;;1.57;100.00
64628;BME280;59036;50.960;0.314;2023-02-28T04:50:42;101380.34;;;2.08;100.00
64628;BME280;59036;50.960;0.314;2023-02-28T04:53:09;101379.95;;;1.90;100.00
64628;BME280;59036;50.960;0.314;2023-02-28T04:55:36;101384.14;;;1.06;100.00
64628;BME280;59036;50.960;0.314;2023-02-28T04:58:03;101377.92;;;1.63;100.00
64628;BME280;59036;50.960;0.314;2023-02-28T05:00:31;101376.67;;;1.30;100.00
64628;BME280;59036;50.960;0.314;2023-02-28T05:02:58;101374.93;;;1.62;100.00
64628;BME280;59036;50.960;0.314;2023-02-28T05:05:25;101380.96;;;1.32;100.00
64628;BME280;59036;50.960;0.314;2023-02-28T05:07:52;101375.83;;;0.88;100.00
64628;BME280;59036;50.960;0.314;2023-02-28T05:10:20;101376.94;;;0.90;100.00
64628;BME280;59036;50.960;0.314;2023-02-28T05:12:47;101375.47;;;1.23;100.00
64628;BME280;59036;50.960;0.314;2023-02-28T05:15:15;101376.00;;;1.31;100.00
64628;BME280;59036;50.960;0.314;2023-02-28T05:17:43;101382.29;;;0.64;100.00
64628;BME280;59036;50.960;0.314;2023-02-28T05:20:11;101384.83;;;1.48;100.00
64628;BME280;59036;50.960;0.314;2023-02-28T05:22:39;101387.19;;;0.64;100.00
64628;BME280;59036;50.960;0.314;2023-02-28T05:25:08;101394.88;;;0.77;100.00
64628;BME280;59036;50.960;0.314;2023-02-28T05:27:36;101393.05;;;0.69;100.00
64628;BME280;59036;50.960;0.314;2023-02-28T05:30:05;101405.48;;;0.22;100.00
64628;BME280;59036;50.960;0.314;2023-02-28T05:32:32;101404.16;;;0.12;100.00
64628;BME280;59036;50.960;0.314;2023-02-28T05:34:59;101401.29;;;0.64;100.00
64628;BME280;59036;50.960;0.314;2023-02-28T05:37:26;101403.58;;;0.75;100.00
64628;BME280;59036;50.960;0.314;2023-02-28T05:39:54;101408.65;;;0.94;100.00
64628;BME280;59036;50.960;0.314;2023-02-28T05:42:21;101412.95;;;0.76;100.00
64628;BME280;59036;50.960;0.314;2023-02-28T05:44:48;101422.59;;;0.06;100.00
64628;BME280;59036;50.960;0.314;2023-02-28T05:47:16;101423.76;;;0.82;100.00
64628;BME280;59036;50.960;0.314;2023-02-28T05:49:43;101427.08;;;0.70;100.00
64628;BME280;59036;50.960;0.314;2023-02-28T05:52:10;101422.38;;;1.07;100.00
64628;BME280;59036;50.960;0.314;2023-02-28T05:54:37;101425.83;;;0.47;100.00
64628;BME280;59036;50.960;0.314;2023-02-28T05:57:04;101422.73;;;1.06;100.00
64628;BME280;59036;50.960;0.314;2023-02-28T05:59:31;101421.94;;;1.01;100.00
64628;BME280;59036;50.960;0.314;2023-02-28T06:01:59;101415.43;;;1.07;100.00
64628;BME280;59036;50.960;0.314;2023-02-28T06:04:27;101415.99;;;0.92;100.00
64628;BME280;59036;50.960;0.314;2023-02-28T06:06:53;101419.00;;;0.87;100.00
64628;BME280;59036;50.960;0.314;2023-02-28T06:09:20;101410.54;;;1.27;100.00
64628;BME280;59036;50.960;0.314;2023-02-28T06:11:47;101413.01;;;1.05;100.00
64628;BME280;59036;50.960;0.314;2023-02-28T06:14:17;101413.02;;;1.13;100.00
64628;BME280;59036;50.960;0.314;2023-02-28T06:16:45;101414.73;;;1.11;100.00
64628;BME280;59036;50.960;0.314;2023-02-28T06:19:12;101415.71;;;1.00;100.00
64628;BME280;59036;50.960;0.314;2023-02-28T06:21:39;101415.24;;;1.24;100.00
64628;BME280;59036;50.960;0.314;2023-02-28T06:24:07;101420.71;;;1.11;100.00
64628;BME280;59036;50.960;0.314;2023-02-28T06:26:35;101420.67;;;1.17;100.00
64628;BME280;59036;50.960;0.314;2023-02-28T06:29:02;101421.12;;;1.28;100.00
64628;BME280;59036;50.960;0.314;2023-02-28T06:31:29;101417.52;;;1.84;100.00
64628;BME280;59036;50.960;0.314;2023-02-28T06:33:57;101422.46;;;1.20;100.00
64628;BME280;59036;50.960;0.314;2023-02-28T06:36:24;101419.91;;;0.67;100.00
64628;BME280;59036;50.960;0.314;2023-02-28T06:38:51;101420.63;;;0.61;100.00
64628;BME280;59036;50.960;0.314;2023-02-28T06:41:24;101420.94;;;1.59;100.00
64628;BME280;59036;50.960;0.314;2023-02-28T06:43:52;101417.82;;;1.07;100.00
64628;BME280;59036;50.960;0.314;2023-02-28T06:46:20;101415.72;;;1.45;100.00
64628;BME280;59036;50.960;0.314;2023-02-28T06:48:47;101418.06;;;1.75;100.00
64628;BME280;59036;50.960;0.314;2023-02-28T06:51:16;101424.23;;;1.37;100.00
64628;BME280;59036;50.960;0.314;2023-02-28T06:53:44;101427.00;;;0.89;100.00
64628;BME280;59036;50.960;0.314;2023-02-28T06:56:12;101425.97;;;1.31;100.00
64628;BME280;59036;50.960;0.314;2023-02-28T06:58:40;101417.42;;;1.72;100.00
64628;BME280;59036;50.960;0.314;2023-02-28T07:01:07;101419.56;;;1.09;100.00
64628;BME280;59036;50.960;0.314;2023-02-28T07:03:35;101424.55;;;1.28;100.00
64628;BME280;59036;50.960;0.314;2023-02-28T07:06:04;101426.84;;;1.38;100.00
64628;BME280;59036;50.960;0.314;2023-02-28T07:08:32;101425.09;;;1.66;100.00
64628;BME280;59036;50.960;0.314;2023-02-28T07:10:59;101429.56;;;1.57;100.00
64628;BME280;59036;50.960;0.314;2023-02-28T07:13:26;101433.46;;;1.58;100.00
64628;BME280;59036;50.960;0.314;2023-02-28T07:15:54;101439.00;;;1.09;100.00
64628;BME280;59036;50.960;0.314;2023-02-28T07:18:22;101442.44;;;1.04;100.00
64628;BME280;59036;50.960;0.314;2023-02-28T07:20:49;101441.27;;;1.23;100.00
64628;BME280;59036;50.960;0.314;2023-02-28T07:23:16;101437.56;;;1.31;100.00
64628;BME280;59036;50.960;0.314;2023-02-28T07:25:44;101433.76;;;1.29;100.00
64628;BME280;59036;50.960;0.314;2023-02-28T07:28:12;101430.97;;;1.35;100.00
64628;BME280;59036;50.960;0.314;2023-02-28T07:30:39;101429.62;;;1.75;100.00
64628;BME280;59036;50.960;0.314;2023-02-28T07:33:07;101430.45;;;1.07;100.00
64628;BME280;59036;50.960;0.314;2023-02-28T07:35:34;101427.46;;;1.36;100.00
64628;BME280;59036;50.960;0.314;2023-02-28T07:38:02;101423.97;;;0.93;100.00
64628;BME280;59036;50.960;0.314;2023-02-28T07:40:29;101430.07;;;0.86;100.00
64628;BME280;59036;50.960;0.314;2023-02-28T07:42:58;101432.22;;;0.79;100.00
64628;BME280;59036;50.960;0.314;2023-02-28T07:45:26;101433.17;;;0.99;100.00
64628;BME280;59036;50.960;0.314;2023-02-28T07:47:55;101439.17;;;0.21;100.00
64628;BME280;59036;50.960;0.314;2023-02-28T07:50:22;101447.30;;;0.19;100.00
64628;BME280;59036;50.960;0.314;2023-02-28T07:52:49;101446.26;;;0.44;100.00
64628;BME280;59036;50.960;0.314;2023-02-28T07:55:16;101445.91;;;1.34;100.00
64628;BME280;59036;50.960;0.314;2023-02-28T07:57:44;101447.24;;;0.93;100.00
64628;BME280;59036;50.960;0.314;2023-02-28T08:00:12;101446.37;;;1.41;100.00
64628;BME280;59036;50.960;0.314;2023-02-28T08:02:40;101442.98;;;1.73;100.00
64628;BME280;59036;50.960;0.314;2023-02-28T08:05:07;101440.50;;;1.49;100.00
64628;BME280;59036;50.960;0.314;2023-02-28T08:07:35;101440.87;;;1.56;100.00
64628;BME280;59036;50.960;0.314;2023-02-28T08:10:03;101449.71;;;0.74;100.00
64628;BME280;59036;50.960;0.314;2023-02-28T08:12:31;101453.33;;;1.27;100.00
64628;BME280;59036;50.960;0.314;2023-02-28T08:14:58;101452.51;;;1.09;100.00
64628;BME280;59036;50.960;0.314;2023-02-28T08:17:25;101452.04;;;0.58;100.00
64628;BME280;59036;50.960;0.314;2023-02-28T08:19:52;101454.69;;;0.24;100.00
64628;BME280;59036;50.960;0.314;2023-02-28T08:22:19;101457.68;;;0.56;100.00
64628;BME280;59036;50.960;0.314;2023-02-28T08:24:47;101459.15;;;0.71;100.00
64628;BME280;59036;50.960;0.314;2023-02-28T08:27:14;101456.61;;;1.14;100.00
64628;BME280;59036;50.960;0.314;2023-02-28T08:29:41;101454.79;;;1.04;100.00
64628;BME280;59036;50.960;0.314;2023-02-28T08:32:08;101447.22;;;1.19;100.00
64628;BME280;59036;50.960;0.314;2023-02-28T08:34:41;101443.71;;;1.45;100.00
64628;BME280;59036;50.960;0.314;2023-02-28T08:37:09;101436.11;;;1.16;100.00
64628;BME280;59036;50.960;0.314;2023-02-28T08:39:36;101445.93;;;1.33;100.00
64628;BME280;59036;50.960;0.314;2023-02-28T08:42:04;101443.43;;;1.25;100.00
64628;BME280;59036;50.960;0.314;2023-02-28T08:44:31;101442.50;;;0.97;100.00
64628;BME280;59036;50.960;0.314;2023-02-28T08:46:59;101438.09;;;1.08;100.00
64628;BME280;59036;50.960;0.314;2023-02-28T08:49:26;101429.14;;;1.20;100.00
64628;BME280;59036;50.960;0.314;2023-02-28T08:51:53;101426.86;;;2.37;100.00
64628;BME280;59036;50.960;0.314;2023-02-28T08:54:21;101418.91;;;1.80;100.00
64628;BME280;59036;50.960;0.314;2023-02-28T08:56:48;101425.58;;;1.59;100.00
64628;BME280;59036;50.960;0.314;2023-02-28T08:59:16;101426.86;;;1.84;100.00
64628;BME280;59036;50.960;0.314;2023-02-28T09:01:43;101423.29;;;1.17;100.00
64628;BME280;59036;50.960;0.314;2023-02-28T09:04:10;101425.50;;;1.49;100.00
64628;BME280;59036;50.960;0.314;2023-02-28T09:06:38;101433.16;;;1.34;100.00
64628;BME280;59036;50.960;0.314;2023-02-28T09:09:05;101433.90;;;1.72;100.00
64628;BME280;59036;50.960;0.314;2023-02-28T09:11:34;101429.44;;;2.95;100.00
64628;BME280;59036;50.960;0.314;2023-02-28T09:14:01;101433.24;;;2.21;100.00
64628;BME280;59036;50.960;0.314;2023-02-28T09:16:30;101433.62;;;2.35;100.00
64628;BME280;59036;50.960;0.314;2023-02-28T09:18:58;101435.21;;;1.76;100.00
64628;BME280;59036;50.960;0.314;2023-02-28T09:21:25;101435.72;;;1.95;100.00
64628;BME280;59036;50.960;0.314;2023-02-28T09:23:53;101427.65;;;2.12;100.00
64628;BME280;59036;50.960;0.314;2023-02-28T09:26:23;101439.33;;;1.39;100.00
64628;BME280;59036;50.960;0.314;2023-02-28T09:28:51;101434.69;;;2.10;100.00
64628;BME280;59036;50.960;0.314;2023-02-28T09:31:20;101426.58;;;2.15;100.00
64628;BME280;59036;50.960;0.314;2023-02-28T09:33:47;101431.84;;;2.81;100.00
64628;BME280;59036;50.960;0.314;2023-02-28T09:36:15;101436.17;;;3.00;100.00
64628;BME280;59036;50.960;0.314;2023-02-28T09:38:42;101435.90;;;2.94;100.00
64628;BME280;59036;50.960;0.314;2023-02-28T09:41:15;101434.80;;;2.78;100.00
64628;BME280;59036;50.960;0.314;2023-02-28T09:43:45;101427.20;;;2.99;100.00
64628;BME280;59036;50.960;0.314;2023-02-28T09:46:26;101428.68;;;3.17;100.00
64628;BME280;59036;50.960;0.314;2023-02-28T09:48:56;101438.06;;;3.77;100.00
64628;BME280;59036;50.960;0.314;2023-02-28T09:51:36;101435.83;;;3.45;100.00
64628;BME280;59036;50.960;0.314;2023-02-28T09:54:14;101432.47;;;3.62;100.00
64628;BME280;59036;50.960;0.314;2023-02-28T09:56:42;101436.91;;;3.02;100.00
64628;BME280;59036;50.960;0.314;2023-02-28T09:59:17;101432.16;;;3.04;100.00
64628;BME280;59036;50.960;0.314;2023-02-28T10:01:56;101434.30;;;2.90;100.00
64628;BME280;59036;50.960;0.314;2023-02-28T10:04:37;101431.57;;;3.35;100.00
64628;BME280;59036;50.960;0.314;2023-02-28T10:07:16;101430.76;;;3.64;100.00
64628;BME280;59036;50.960;0.314;2023-02-28T10:09:45;101425.21;;;3.87;100.00
64628;BME280;59036;50.960;0.314;2023-02-28T10:12:15;101430.37;;;3.08;100.00
64628;BME280;59036;50.960;0.314;2023-02-28T10:14:45;101426.93;;;3.38;100.00
64628;BME280;59036;50.960;0.314;2023-02-28T10:17:17;101420.24;;;3.67;100.00
64628;BME280;59036;50.960;0.314;2023-02-28T10:19:53;101415.48;;;3.23;100.00
64628;BME280;59036;50.960;0.314;2023-02-28T10:22:26;101413.83;;;2.95;100.00
64628;BME280;59036;50.960;0.314;2023-02-28T10:24:57;101409.69;;;2.88;100.00
64628;BME280;59036;50.960;0.314;2023-02-28T10:27:29;101407.28;;;3.32;100.00
64628;BME280;59036;50.960;0.314;2023-02-28T10:30:00;101409.04;;;3.17;100.00
64628;BME280;59036;50.960;0.314;2023-02-28T10:32:30;101408.27;;;2.80;100.00
64628;BME280;59036;50.960;0.314;2023-02-28T10:35:00;101412.43;;;3.76;100.00
64628;BME280;59036;50.960;0.314;2023-02-28T10:37:31;101407.60;;;3.84;100.00
64628;BME280;59036;50.960;0.314;2023-02-28T10:39:58;101397.98;;;3.68;100.00
64628;BME280;59036;50.960;0.314;2023-02-28T10:42:27;101399.00;;;4.17;100.00
64628;BME280;59036;50.960;0.314;2023-02-28T10:45:12;101398.94;;;4.47;100.00
64628;BME280;59036;50.960;0.314;2023-02-28T10:47:51;101395.93;;;3.09;100.00
64628;BME280;59036;50.960;0.314;2023-02-28T10:50:37;101391.35;;;3.47;100.00
64628;BME280;59036;50.960;0.314;2023-02-28T10:53:45;101384.61;;;3.55;100.00
64628;BME280;59036;50.960;0.314;2023-02-28T10:56:16;101385.56;;;3.71;100.00
64628;BME280;59036;50.960;0.314;2023-02-28T10:58:54;101389.66;;;3.97;100.00
64628;BME280;59036;50.960;0.314;2023-02-28T11:01:22;101386.35;;;3.80;100.00
64628;BME280;59036;50.960;0.314;2023-02-28T11:03:50;101383.07;;;3.90;100.00
64628;BME280;59036;50.960;0.314;2023-02-28T11:06:20;101379.91;;;3.32;100.00
64628;BME280;59036;50.960;0.314;2023-02-28T11:08:50;101377.56;;;3.28;100.00
64628;BME280;59036;50.960;0.314;2023-02-28T11:11:20;101376.73;;;4.05;100.00
64628;BME280;59036;50.960;0.314;2023-02-28T11:13:51;101370.22;;;3.81;100.00
64628;BME280;59036;50.960;0.314;2023-02-28T11:16:20;101375.87;;;3.80;100.00
64628;BME280;59036;50.960;0.314;2023-02-28T11:18:50;101369.88;;;4.71;100.00
64628;BME280;59036;50.960;0.314;2023-02-28T11:21:22;101378.74;;;3.69;100.00
64628;BME280;59036;50.960;0.314;2023-02-28T11:23:58;101375.65;;;3.68;100.00
64628;BME280;59036;50.960;0.314;2023-02-28T11:26:38;101377.25;;;4.19;100.00
64628;BME280;59036;50.960;0.314;2023-02-28T11:29:19;101368.98;;;3.36;100.00
64628;BME280;59036;50.960;0.314;2023-02-28T11:32:10;101371.98;;;3.47;100.00
64628;BME280;59036;50.960;0.314;2023-02-28T11:34:40;101371.46;;;3.91;100.00
64628;BME280;59036;50.960;0.314;2023-02-28T11:37:12;101366.74;;;3.39;100.00
64628;BME280;59036;50.960;0.314;2023-02-28T11:39:41;101358.70;;;3.42;100.00
64628;BME280;59036;50.960;0.314;2023-02-28T11:42:19;101364.58;;;3.76;100.00
64628;BME280;59036;50.960;0.314;2023-02-28T11:45:08;101369.85;;;2.57;100.00
64628;BME280;59036;50.960;0.314;2023-02-28T11:47:44;101364.94;;;3.28;100.00
64628;BME280;59036;50.960;0.314;2023-02-28T11:50:20;101354.39;;;3.72;100.00
64628;BME280;59036;50.960;0.314;2023-02-28T11:52:53;101346.28;;;3.76;100.00
64628;BME280;59036;50.960;0.314;2023-02-28T11:55:25;101356.99;;;3.29;100.00
64628;BME280;59036;50.960;0.314;2023-02-28T11:58:04;101358.28;;;3.77;100.00
64628;BME280;59036;50.960;0.314;2023-02-28T12:00:40;101356.82;;;4.10;100.00
64628;BME280;59036;50.960;0.314;2023-02-28T12:03:22;101358.37;;;4.10;100.00
64628;BME280;59036;50.960;0.314;2023-02-28T12:06:01;101353.71;;;4.29;100.00
64628;BME280;59036;50.960;0.314;2023-02-28T12:08:47;101353.86;;;3.99;100.00
64628;BME280;59036;50.960;0.314;2023-02-28T12:11:29;101346.80;;;3.08;100.00
64628;BME280;59036;50.960;0.314;2023-02-28T12:14:14;101342.53;;;3.80;100.00
64628;BME280;59036;50.960;0.314;2023-02-28T12:16:51;101335.50;;;3.15;100.00
64628;BME280;59036;50.960;0.314;2023-02-28T12:19:25;101327.59;;;3.45;100.00
64628;BME280;59036;50.960;0.314;2023-02-28T12:22:11;101318.14;;;4.28;100.00
64628;BME280;59036;50.960;0.314;2023-02-28T12:25:00;101312.10;;;4.47;100.00
64628;BME280;59036;50.960;0.314;2023-02-28T12:27:34;101314.45;;;3.66;100.00
64628;BME280;59036;50.960;0.314;2023-02-28T12:30:12;101312.15;;;4.39;100.00
64628;BME280;59036;50.960;0.314;2023-02-28T12:32:42;101311.97;;;2.99;100.00
64628;BME280;59036;50.960;0.314;2023-02-28T12:35:14;101310.40;;;3.42;100.00
64628;BME280;59036;50.960;0.314;2023-02-28T12:37:46;101300.18;;;3.43;100.00
64628;BME280;59036;50.960;0.314;2023-02-28T12:40:20;101297.62;;;3.82;100.00
64628;BME280;59036;50.960;0.314;2023-02-28T12:42:51;101287.59;;;3.45;100.00
64628;BME280;59036;50.960;0.314;2023-02-28T12:45:20;101294.42;;;4.07;100.00
64628;BME280;59036;50.960;0.314;2023-02-28T12:47:52;101290.84;;;3.68;100.00
64628;BME280;59036;50.960;0.314;2023-02-28T12:50:23;101285.24;;;3.91;100.00
64628;BME280;59036;50.960;0.314;2023-02-28T12:52:55;101288.67;;;3.41;100.00
64628;BME280;59036;50.960;0.314;2023-02-28T12:55:31;101284.60;;;3.41;100.00
64628;BME280;59036;50.960;0.314;2023-02-28T12:58:10;101279.03;;;3.69;100.00
64628;BME280;59036;50.960;0.314;2023-02-28T13:00:52;101272.10;;;3.61;100.00
64628;BME280;59036;50.960;0.314;2023-02-28T13:03:40;101264.47;;;2.93;100.00
64628;BME280;59036;50.960;0.314;2023-02-28T13:06:41;101256.02;;;3.23;100.00
64628;BME280;59036;50.960;0.314;2023-02-28T13:09:13;101247.61;;;3.55;100.00
64628;BME280;59036;50.960;0.314;2023-02-28T13:11:43;101245.16;;;3.74;100.00